Time;durP1;ratioP1;P1;durP2;ratioP2;P2;SDS_P1;SDS_P2;PMS_P1;PMS_P2;Temp;Humidity;BMP_temperature;BMP_pressure;BME280_temperature;BME280_humidity;BME280_pressure;Samples;Min_cycle;Max_cycle;Signal;HPM_P1;HPM_P2
2022/01/16 00:00:46;;;;;;;1.88;0.82;;;24.10;51.90;;;;;;5038593;28;20234;-47
2022/01/16 00:06:04;;;;;;;2.28;0.90;;;24.10;51.90;;;;;;5046871;28;20338;-42
2022/01/16 00:08:34;;;;;;;1.88;0.95;;;24.20;52.50;;;;;;5043509;28;20603;-46
2022/01/16 00:11:04;;;;;;;1.98;0.93;;;24.20;51.90;;;;;;5049866;28;20223;-41
2022/01/16 00:13:37;;;;;;;2.38;0.90;;;24.20;51.90;;;;;;5044641;28;20269;-41
2022/01/16 00:16:12;;;;;;;1.77;0.90;;;24.20;51.90;;;;;;5045736;28;20200;-40
2022/01/16 00:18:49;;;;;;;2.88;1.25;;;24.20;51.90;;;;;;5049795;28;20281;-41
2022/01/16 00:21:21;;;;;;;1.75;0.80;;;24.30;51.80;;;;;;5040818;28;20707;-41
2022/01/16 00:23:52;;;;;;;1.38;0.93;;;24.30;51.70;;;;;;5038133;28;20274;-40
2022/01/16 00:26:24;;;;;;;3.60;1.20;;;24.30;51.80;;;;;;5046149;28;20207;-41
2022/01/16 00:28:58;;;;;;;2.80;0.90;;;24.40;51.70;;;;;;5043808;28;20358;-41
2022/01/16 00:31:29;;;;;;;4.45;0.88;;;24.40;51.70;;;;;;5041870;28;20218;-43
2022/01/16 00:34:00;;;;;;;2.17;1.02;;;24.40;51.80;;;;;;5045402;28;20713;-42
2022/01/16 00:36:33;;;;;;;2.53;1.02;;;24.40;51.80;;;;;;5046455;28;20660;-43
2022/01/16 00:39:05;;;;;;;3.17;0.90;;;24.40;51.80;;;;;;5048686;28;20197;-41
2022/01/16 00:41:36;;;;;;;2.63;1.17;;;24.50;51.70;;;;;;5042544;28;20291;-41
2022/01/16 00:44:09;;;;;;;2.38;1.10;;;24.50;51.70;;;;;;5046831;28;20590;-47
2022/01/16 00:46:40;;;;;;;2.20;0.98;;;24.50;51.60;;;;;;5048636;28;20200;-45
2022/01/16 00:49:10;;;;;;;2.00;1.05;;;24.50;51.60;;;;;;5041389;28;20287;-44
2022/01/16 00:51:41;;;;;;;2.28;0.90;;;24.50;51.50;;;;;;5034695;28;20211;-41
2022/01/16 00:54:12;;;;;;;2.45;1.00;;;24.50;51.50;;;;;;5045662;28;20247;-43
2022/01/16 00:56:42;;;;;;;2.05;1.10;;;24.60;51.50;;;;;;5043286;28;20659;-42
2022/01/16 00:59:15;;;;;;;2.42;0.80;;;24.60;51.40;;;;;;5033532;28;20224;-43
2022/01/16 01:01:45;;;;;;;2.22;0.90;;;24.60;51.40;;;;;;5039560;28;20192;-41
2022/01/16 01:04:16;;;;;;;2.95;1.00;;;24.70;51.40;;;;;;5035123;28;20298;-44
2022/01/16 01:06:48;;;;;;;2.67;1.08;;;24.70;51.40;;;;;;5046172;28;20187;-40
2022/01/16 01:09:19;;;;;;;2.50;0.93;;;24.70;51.40;;;;;;5043657;28;20331;-42
2022/01/16 01:11:50;;;;;;;4.72;1.20;;;24.70;51.30;;;;;;5047878;28;20652;-51
2022/01/16 01:14:37;;;;;;;2.55;1.25;;;24.70;51.30;;;;;;5045574;28;20246;-41
2022/01/16 01:17:09;;;;;;;1.40;0.90;;;24.70;51.30;;;;;;5043499;28;20250;-47
2022/01/16 01:19:39;;;;;;;2.10;0.90;;;24.70;51.30;;;;;;5048257;28;20218;-42
2022/01/16 01:22:10;;;;;;;3.60;0.80;;;24.80;51.30;;;;;;5038574;28;20234;-42
2022/01/16 01:24:41;;;;;;;2.63;1.10;;;24.80;51.30;;;;;;5045212;28;20224;-48
2022/01/16 01:27:17;;;;;;;2.38;1.02;;;24.80;51.30;;;;;;5046716;28;20199;-44
2022/01/16 01:29:58;;;;;;;3.10;0.98;;;24.80;51.30;;;;;;5041335;28;20223;-44
2022/01/16 01:32:30;;;;;;;2.25;1.02;;;24.80;51.30;;;;;;5046505;28;20207;-42
2022/01/16 01:35:01;;;;;;;3.15;0.90;;;24.90;51.30;;;;;;5046996;28;20247;-45
2022/01/16 01:37:34;;;;;;;2.45;1.05;;;24.90;51.30;;;;;;5040730;28;20215;-47
2022/01/16 01:40:10;;;;;;;2.00;1.00;;;24.90;51.20;;;;;;5031692;28;20682;-42
2022/01/16 01:42:47;;;;;;;3.75;1.20;;;24.90;51.20;;;;;;5044264;28;20191;-42
2022/01/16 01:51:15;;;;;;;3.17;1.20;;;25.10;51.10;;;;;;5046363;28;20325;-40
2022/01/16 01:53:47;;;;;;;2.72;1.00;;;25.10;51.00;;;;;;5042355;28;20247;-42
2022/01/16 01:56:21;;;;;;;2.72;1.05;;;25.00;51.00;;;;;;5047237;28;20200;-45
2022/01/16 01:58:52;;;;;;;2.08;1.00;;;25.10;51.10;;;;;;5045161;28;20194;-45
2022/01/16 02:01:24;;;;;;;2.45;0.95;;;25.10;51.00;;;;;;5044940;28;20203;-41
2022/01/16 02:03:55;;;;;;;2.60;0.93;;;25.10;51.00;;;;;;5031595;28;20208;-42
2022/01/16 02:06:33;;;;;;;3.40;1.17;;;25.10;50.90;;;;;;5042414;28;20206;-48
2022/01/16 02:09:06;;;;;;;3.92;1.50;;;25.10;50.90;;;;;;5042903;28;20897;-44
2022/01/16 02:11:38;;;;;;;3.15;1.00;;;25.10;50.90;;;;;;5042368;28;20212;-41
2022/01/16 02:14:13;;;;;;;4.25;1.00;;;25.10;50.90;;;;;;5040164;28;20227;-42
2022/01/16 02:28:11;;;;;;;4.00;1.30;;;25.20;50.80;;;;;;5049012;28;20615;-40
2022/01/16 02:34:30;;;;;;;2.22;1.00;;;25.30;50.80;;;;;;5039399;28;20727;-44
2022/01/16 02:36:28;;;;;;;2.88;1.20;;;25.30;50.80;;;;;;5043527;28;20192;-43
2022/01/16 02:39:10;;;;;;;3.97;1.05;;;25.30;50.70;;;;;;5052373;28;20204;-40
2022/01/16 02:41:44;;;;;;;2.90;1.20;;;25.30;50.70;;;;;;5053565;28;20228;-40
2022/01/16 02:44:20;;;;;;;3.65;1.08;;;25.30;50.70;;;;;;5046466;28;20223;-40
2022/01/16 02:46:51;;;;;;;2.50;0.93;;;25.30;50.70;;;;;;5049663;28;21453;-45
2022/01/16 02:49:27;;;;;;;3.45;1.20;;;25.30;50.70;;;;;;5055930;28;20509;-40
2022/01/16 02:52:01;;;;;;;3.72;1.48;;;25.30;50.70;;;;;;5048100;28;20603;-40
2022/01/16 02:54:36;;;;;;;3.75;1.45;;;25.30;50.70;;;;;;5047643;28;20228;-40
2022/01/16 02:57:11;;;;;;;2.88;0.90;;;25.30;50.70;;;;;;5058609;28;20207;-49
2022/01/16 02:59:49;;;;;;;3.20;1.00;;;25.30;50.70;;;;;;5046768;28;20217;-43
2022/01/16 03:02:21;;;;;;;2.47;0.98;;;25.40;50.70;;;;;;5044690;28;20571;-40
2022/01/16 03:04:52;;;;;;;1.95;1.33;;;25.40;50.70;;;;;;5045134;28;20219;-41
2022/01/16 03:07:24;;;;;;;4.63;1.40;;;25.40;50.70;;;;;;5044395;28;20205;-40
2022/01/16 03:12:57;;;;;;;2.85;1.20;;;25.50;50.60;;;;;;5046198;28;20210;-40
2022/01/16 03:15:32;;;;;;;2.67;1.23;;;25.40;50.50;;;;;;5053040;28;20191;-40
2022/01/16 03:23:38;;;;;;;1.42;0.88;;;25.50;50.40;;;;;;5046118;28;20299;-42
2022/01/16 03:26:11;;;;;;;2.92;1.10;;;25.50;50.40;;;;;;5044875;28;20685;-40
2022/01/16 03:28:44;;;;;;;3.65;1.38;;;25.60;50.50;;;;;;5046726;28;20231;-40
2022/01/16 03:31:15;;;;;;;3.80;1.25;;;25.50;50.40;;;;;;5047197;28;20254;-41
2022/01/16 03:33:45;;;;;;;5.03;1.40;;;25.60;50.40;;;;;;5048093;28;20713;-40
2022/01/16 03:36:16;;;;;;;4.15;1.23;;;25.60;50.40;;;;;;5044838;28;20206;-47
2022/01/16 03:38:46;;;;;;;3.40;1.10;;;25.60;50.40;;;;;;5044938;28;20298;-43
2022/01/16 03:41:19;;;;;;;3.55;1.50;;;25.70;50.40;;;;;;5060988;28;20653;-40
2022/01/16 03:43:51;;;;;;;3.15;1.35;;;25.70;50.30;;;;;;5044471;28;20219;-41
2022/01/16 03:46:22;;;;;;;3.03;1.30;;;25.70;50.30;;;;;;5045347;28;20196;-40
2022/01/16 03:48:52;;;;;;;3.05;1.15;;;25.80;50.30;;;;;;5061377;28;20287;-42
2022/01/16 03:51:23;;;;;;;4.43;1.30;;;25.80;50.30;;;;;;5047489;28;20297;-47
2022/01/16 03:53:53;;;;;;;3.42;1.23;;;25.80;50.20;;;;;;5047129;28;20674;-43
2022/01/16 03:56:26;;;;;;;2.70;1.30;;;25.80;50.20;;;;;;5045353;28;20235;-48
2022/01/16 03:58:56;;;;;;;2.67;1.25;;;25.80;50.10;;;;;;5047276;28;20655;-40
2022/01/16 04:01:27;;;;;;;4.45;1.15;;;25.90;50.20;;;;;;5063445;28;20258;-40
2022/01/16 04:03:58;;;;;;;2.83;1.30;;;25.90;50.10;;;;;;5045600;28;20223;-51
2022/01/16 04:06:29;;;;;;;2.90;1.20;;;25.90;50.00;;;;;;5049398;28;20230;-49
2022/01/16 04:09:00;;;;;;;3.00;1.10;;;25.90;50.00;;;;;;5065825;28;20260;-46
2022/01/16 04:11:33;;;;;;;1.85;0.93;;;26.00;50.00;;;;;;5049044;28;20311;-46
2022/01/16 04:14:06;;;;;;;3.22;1.13;;;26.00;50.00;;;;;;5048508;28;20259;-40
2022/01/16 04:16:38;;;;;;;4.20;1.50;;;26.00;49.90;;;;;;5050266;28;20289;-41
2022/01/16 04:19:09;;;;;;;3.90;1.30;;;26.10;49.90;;;;;;5049491;28;20739;-40
2022/01/16 04:21:39;;;;;;;3.03;1.10;;;26.10;50.00;;;;;;5065572;28;20310;-37
2022/01/16 04:24:10;;;;;;;5.50;1.60;;;26.10;49.80;;;;;;5048152;28;20655;-35
2022/01/16 04:26:42;;;;;;;6.60;1.60;;;26.10;49.20;;;;;;5049245;28;20291;-41
2022/01/16 04:29:13;;;;;;;4.93;1.40;;;26.00;49.10;;;;;;5065705;28;20730;-40
2022/01/16 04:31:43;;;;;;;5.53;1.63;;;26.00;49.20;;;;;;5052933;28;20313;-41
2022/01/16 04:34:14;;;;;;;6.45;1.70;;;26.00;49.40;;;;;;5058265;28;20298;-42
2022/01/16 04:36:44;;;;;;;5.30;1.63;;;26.00;49.60;;;;;;5065344;28;20298;-50
2022/01/16 04:39:17;;;;;;;4.03;1.13;;;26.00;49.70;;;;;;5048557;28;20207;-41
2022/01/16 04:44:36;;;;;;;4.32;1.55;;;26.10;49.80;;;;;;5060855;28;20577;-41
2022/01/16 04:47:07;;;;;;;5.22;1.33;;;26.10;49.70;;;;;;5052147;28;20234;-45
2022/01/16 04:49:37;;;;;;;4.72;1.30;;;26.10;49.70;;;;;;5061644;28;20290;-40
2022/01/16 04:52:08;;;;;;;3.72;1.20;;;26.10;49.70;;;;;;5051370;28;20313;-40
2022/01/16 04:54:39;;;;;;;4.45;1.58;;;26.20;49.70;;;;;;5053476;28;20336;-41
2022/01/16 04:57:13;;;;;;;3.78;1.65;;;26.20;49.70;;;;;;5056662;28;20270;-41
2022/01/16 04:59:46;;;;;;;5.25;1.63;;;26.20;49.70;;;;;;5045853;28;20214;-40
2022/01/16 05:02:19;;;;;;;5.90;1.25;;;26.20;49.60;;;;;;5055665;28;20209;-42
2022/01/16 05:04:50;;;;;;;4.28;1.55;;;26.20;49.50;;;;;;5052466;28;20300;-44
2022/01/16 05:07:20;;;;;;;3.67;1.10;;;26.30;49.50;;;;;;5048729;28;20278;-39
2022/01/16 05:09:51;;;;;;;5.18;1.40;;;26.30;49.50;;;;;;5055706;28;20279;-40
2022/01/16 05:12:32;;;;;;;3.55;1.10;;;26.30;50.10;;;;;;5045425;28;20228;-40
2022/01/16 05:17:50;;;;;;;5.80;1.40;;;26.30;49.30;;;;;;5040216;28;20207;-40
2022/01/16 05:20:20;;;;;;;3.67;1.27;;;26.40;49.40;;;;;;5041203;28;20893;-44
2022/01/16 05:22:52;;;;;;;4.55;1.50;;;26.40;49.30;;;;;;5040475;28;20726;-41
2022/01/16 05:25:22;;;;;;;2.70;1.50;;;26.40;49.20;;;;;;5041253;28;20801;-50
2022/01/16 05:27:56;;;;;;;3.30;1.25;;;26.40;49.20;;;;;;5040490;28;20249;-41
2022/01/16 05:30:27;;;;;;;4.90;1.67;;;26.40;49.10;;;;;;5041038;28;20279;-46
2022/01/16 05:32:57;;;;;;;4.80;1.27;;;26.40;49.10;;;;;;5045735;28;20225;-50
2022/01/16 05:35:28;;;;;;;3.80;1.30;;;26.50;49.10;;;;;;5044080;28;20279;-45
2022/01/16 05:37:58;;;;;;;3.55;1.20;;;26.50;49.10;;;;;;5033115;28;20661;-47
2022/01/16 05:40:29;;;;;;;2.58;1.30;;;26.50;49.10;;;;;;5037014;28;20196;-50
2022/01/16 05:43:01;;;;;;;3.40;1.70;;;26.50;49.00;;;;;;5035913;28;20283;-40
2022/01/16 05:45:32;;;;;;;4.15;1.55;;;26.50;49.00;;;;;;5048230;28;20318;-42
2022/01/16 05:48:02;;;;;;;3.55;1.25;;;26.50;48.90;;;;;;5042106;28;20196;-43
2022/01/16 05:50:33;;;;;;;4.80;1.30;;;26.50;48.80;;;;;;5046765;28;20291;-42
2022/01/16 05:53:04;;;;;;;3.13;1.33;;;26.50;48.80;;;;;;5037183;28;20714;-40
2022/01/16 05:55:36;;;;;;;2.80;1.23;;;26.60;48.90;;;;;;5043320;28;20597;-45
2022/01/16 05:58:12;;;;;;;3.35;1.25;;;26.60;48.80;;;;;;5048724;28;20204;-44
2022/01/16 06:00:44;;;;;;;3.60;1.60;;;26.60;48.80;;;;;;5043128;28;20612;-43
2022/01/16 06:03:14;;;;;;;6.82;1.48;;;26.60;48.80;;;;;;5043088;28;20219;-48
2022/01/16 06:05:45;;;;;;;3.35;1.10;;;26.60;48.70;;;;;;5047231;28;20286;-43
2022/01/16 06:08:15;;;;;;;3.67;1.30;;;26.60;48.70;;;;;;5041563;28;20286;-40
2022/01/16 06:10:46;;;;;;;3.63;1.33;;;26.60;48.70;;;;;;5041423;28;20232;-40
2022/01/16 06:13:18;;;;;;;3.42;1.33;;;26.60;48.70;;;;;;5043115;28;20302;-40
2022/01/16 06:15:49;;;;;;;3.10;1.30;;;26.60;48.70;;;;;;5041965;28;20279;-43
2022/01/16 06:18:19;;;;;;;4.70;1.30;;;26.60;48.70;;;;;;5047801;28;20282;-46
2022/01/16 06:20:50;;;;;;;4.13;1.38;;;26.60;48.70;;;;;;5040917;28;20195;-42
2022/01/16 06:23:21;;;;;;;2.30;1.20;;;26.60;48.60;;;;;;5044293;28;20248;-46
2022/01/16 06:25:54;;;;;;;5.05;1.58;;;26.60;48.60;;;;;;5046306;28;20274;-41
2022/01/16 06:28:29;;;;;;;3.53;1.35;;;26.60;48.60;;;;;;5041729;28;20685;-48
2022/01/16 06:31:02;;;;;;;3.10;1.20;;;26.60;48.60;;;;;;5046358;28;20286;-40
2022/01/16 06:33:32;;;;;;;3.05;1.63;;;26.60;48.60;;;;;;5044770;28;20216;-48
2022/01/16 06:36:03;;;;;;;3.75;1.30;;;26.60;48.50;;;;;;5040335;28;20231;-45
2022/01/16 06:38:34;;;;;;;4.90;1.50;;;26.60;48.50;;;;;;5030286;28;20580;-41
2022/01/16 06:41:04;;;;;;;5.00;1.38;;;26.60;48.50;;;;;;5034693;28;20620;-43
2022/01/16 06:43:37;;;;;;;3.65;1.27;;;26.60;48.40;;;;;;5036276;28;20515;-41
2022/01/16 06:46:07;;;;;;;2.05;1.35;;;26.60;48.50;;;;;;5031048;28;20279;-40
2022/01/16 06:48:40;;;;;;;3.15;1.38;;;26.70;48.60;;;;;;5040624;28;20207;-43
2022/01/16 06:51:12;;;;;;;3.13;1.30;;;26.70;48.60;;;;;;5042213;28;20282;-41
2022/01/16 06:53:42;;;;;;;3.53;1.02;;;26.70;48.60;;;;;;5044596;28;20243;-44
2022/01/16 06:56:13;;;;;;;3.65;1.20;;;26.70;48.60;;;;;;5040596;28;20286;-40
2022/01/16 06:58:45;;;;;;;2.50;1.38;;;26.70;48.50;;;;;;5037162;28;20199;-43
2022/01/16 07:01:16;;;;;;;3.00;1.42;;;26.70;48.50;;;;;;5041819;28;20227;-46
2022/01/16 07:03:46;;;;;;;3.13;1.00;;;26.70;48.50;;;;;;5041771;28;20259;-45
2022/01/16 07:06:17;;;;;;;2.42;1.10;;;26.70;48.50;;;;;;5029936;28;20286;-42
2022/01/16 07:08:47;;;;;;;2.60;1.20;;;26.70;48.50;;;;;;5036651;28;20290;-45
2022/01/16 07:11:18;;;;;;;1.88;0.98;;;26.70;48.40;;;;;;5039350;28;20214;-40
2022/01/16 07:13:51;;;;;;;2.65;1.38;;;26.70;48.40;;;;;;5043378;28;20334;-43
2022/01/16 07:16:21;;;;;;;3.45;1.25;;;26.80;48.40;;;;;;5038062;28;20219;-41
2022/01/16 07:18:52;;;;;;;4.07;1.50;;;26.70;48.30;;;;;;5043801;28;20192;-43
2022/01/16 07:21:23;;;;;;;1.83;1.23;;;26.80;48.30;;;;;;5042839;28;20616;-40
2022/01/16 07:23:53;;;;;;;2.85;1.40;;;26.80;48.30;;;;;;5042250;28;20306;-40
2022/01/16 07:26:24;;;;;;;2.05;1.25;;;26.70;48.20;;;;;;5046163;28;20278;-40
2022/01/16 07:28:56;;;;;;;2.13;1.20;;;26.70;48.20;;;;;;5035581;28;20291;-47
2022/01/16 07:31:27;;;;;;;3.47;1.08;;;26.70;48.20;;;;;;5030709;28;20282;-41
2022/01/16 07:33:59;;;;;;;2.78;1.30;;;26.80;48.20;;;;;;5032485;28;20789;-42
2022/01/16 07:36:29;;;;;;;5.03;1.70;;;26.70;48.20;;;;;;5038596;28;20223;-47
2022/01/16 07:39:00;;;;;;;7.88;2.40;;;26.70;48.20;;;;;;5034518;28;20223;-47
2022/01/16 07:41:32;;;;;;;5.30;1.90;;;26.70;48.20;;;;;;5047182;28;20471;-41
2022/01/16 07:44:08;;;;;;;8.27;2.40;;;26.70;48.20;;;;;;5043791;28;20305;-42
2022/01/16 07:46:39;;;;;;;6.10;1.70;;;26.70;48.20;;;;;;5060044;28;20299;-40
2022/01/16 07:49:11;;;;;;;3.70;1.85;;;26.60;48.80;;;;;;5049682;28;20667;-41
2022/01/16 07:51:42;;;;;;;4.50;1.58;;;26.60;48.30;;;;;;5057143;28;20349;-40
2022/01/16 07:54:12;;;;;;;5.10;1.67;;;26.60;48.30;;;;;;5049861;28;20322;-40
2022/01/16 07:56:43;;;;;;;5.68;2.13;;;26.60;48.40;;;;;;5048199;28;20230;-40
2022/01/16 07:59:24;;;;;;;5.78;2.00;;;26.50;48.30;;;;;;5066074;28;20631;-40
2022/01/16 08:02:01;;;;;;;3.33;1.60;;;26.50;48.40;;;;;;5047893;28;20316;-42
2022/01/16 08:04:31;;;;;;;4.47;1.52;;;26.50;48.40;;;;;;5048912;28;20226;-42
2022/01/16 08:07:03;;;;;;;5.60;1.80;;;26.50;48.40;;;;;;5050689;28;20235;-42
2022/01/16 08:09:34;;;;;;;5.15;1.88;;;26.50;48.50;;;;;;5049630;28;20184;-44
2022/01/16 08:12:11;;;;;;;4.22;1.67;;;26.50;48.40;;;;;;5051293;28;20701;-40
2022/01/16 08:17:40;;;;;;;3.75;1.58;;;26.40;48.40;;;;;;5046953;28;20294;-41
2022/01/16 08:20:13;;;;;;;4.43;1.70;;;26.40;48.40;;;;;;5048326;28;20265;-40
2022/01/16 08:22:44;;;;;;;3.92;1.80;;;26.30;48.40;;;;;;5046209;28;20223;-40
2022/01/16 08:25:16;;;;;;;3.80;1.65;;;26.40;48.50;;;;;;5036999;28;20624;-40
2022/01/16 08:27:47;;;;;;;3.38;1.67;;;26.30;48.40;;;;;;5047800;28;20222;-43
2022/01/16 08:30:20;;;;;;;4.30;1.83;;;26.30;49.00;;;;;;5057746;28;20219;-40
2022/01/16 08:32:52;;;;;;;5.30;1.73;;;26.30;48.50;;;;;;5053549;28;20255;-47
2022/01/16 08:35:23;;;;;;;5.45;1.75;;;26.30;48.50;;;;;;5049319;28;20192;-48
2022/01/16 08:37:53;;;;;;;3.33;1.48;;;26.20;48.50;;;;;;5053133;28;20294;-41
2022/01/16 08:40:24;;;;;;;5.43;1.65;;;26.20;48.50;;;;;;5056748;28;20279;-42
2022/01/16 08:42:54;;;;;;;4.50;1.60;;;26.20;48.60;;;;;;5062645;28;20619;-40
2022/01/16 08:45:27;;;;;;;4.47;1.80;;;26.10;48.50;;;;;;5051767;28;20235;-47
2022/01/16 08:48:00;;;;;;;4.40;1.60;;;26.10;48.50;;;;;;5062635;28;20231;-40
2022/01/16 08:50:31;;;;;;;2.33;1.10;;;26.10;48.50;;;;;;5060988;28;20289;-49
2022/01/16 08:53:01;;;;;;;2.83;1.50;;;26.10;48.60;;;;;;5052359;28;20246;-47
2022/01/16 08:55:32;;;;;;;5.53;1.50;;;26.10;48.60;;;;;;5056465;28;20278;-55
2022/01/16 08:58:02;;;;;;;3.55;1.30;;;26.10;48.70;;;;;;5053995;28;20281;-53
2022/01/16 09:00:35;;;;;;;3.40;1.65;;;26.00;48.60;;;;;;5036967;28;20704;-39
2022/01/16 09:03:05;;;;;;;3.28;1.60;;;26.00;48.60;;;;;;5049133;28;20315;-43
2022/01/16 09:05:36;;;;;;;3.53;1.20;;;26.00;48.70;;;;;;5041066;28;20202;-40
2022/01/16 09:08:06;;;;;;;2.50;1.25;;;25.90;48.60;;;;;;5042528;28;20291;-40
2022/01/16 09:10:37;;;;;;;3.83;1.70;;;25.90;48.60;;;;;;5041229;28;20227;-43
2022/01/16 09:13:08;;;;;;;4.72;1.60;;;25.80;48.60;;;;;;5038192;28;20637;-44
2022/01/16 09:15:40;;;;;;;3.78;1.50;;;25.80;48.60;;;;;;5041542;28;20199;-41
2022/01/16 09:18:11;;;;;;;3.67;1.35;;;25.80;48.70;;;;;;5039842;28;20283;-43
2022/01/16 09:20:41;;;;;;;3.38;1.38;;;25.80;48.70;;;;;;5041040;28;20849;-40
2022/01/16 09:23:12;;;;;;;3.58;1.20;;;25.70;48.60;;;;;;5039965;28;21101;-44
2022/01/16 09:25:43;;;;;;;4.32;1.40;;;25.70;48.70;;;;;;5039829;28;20286;-41
2022/01/16 09:28:13;;;;;;;2.53;1.20;;;25.70;48.70;;;;;;5038226;28;20282;-46
2022/01/16 09:30:46;;;;;;;1.88;1.02;;;25.60;48.70;;;;;;5038634;28;20290;-40
2022/01/16 09:33:17;;;;;;;2.65;1.30;;;25.60;48.70;;;;;;5041662;28;20315;-44
2022/01/16 09:35:48;;;;;;;2.88;1.30;;;25.60;48.80;;;;;;5038285;28;20274;-46
2022/01/16 09:38:18;;;;;;;2.72;1.40;;;25.50;48.70;;;;;;5042033;28;20287;-50
2022/01/16 09:40:49;;;;;;;3.53;1.40;;;25.50;48.80;;;;;;5038819;28;20195;-40
2022/01/16 09:43:20;;;;;;;2.20;1.20;;;25.50;48.80;;;;;;5039240;28;20750;-40
2022/01/16 09:45:53;;;;;;;2.58;1.38;;;25.50;48.80;;;;;;5041498;28;20235;-40
2022/01/16 09:48:24;;;;;;;2.72;1.35;;;25.40;48.70;;;;;;5038367;28;20207;-40
2022/01/16 09:50:54;;;;;;;2.67;1.10;;;25.40;48.80;;;;;;5041733;28;20279;-44
2022/01/16 09:53:25;;;;;;;1.85;1.30;;;25.40;48.70;;;;;;5039818;28;20306;-43
2022/01/16 09:55:55;;;;;;;1.98;1.20;;;25.40;48.80;;;;;;5042384;28;20683;-40
2022/01/16 09:58:26;;;;;;;5.05;1.67;;;25.30;48.70;;;;;;5040781;28;20632;-47
2022/01/16 10:00:58;;;;;;;1.95;1.10;;;25.30;48.80;;;;;;5041943;28;20278;-43
2022/01/16 10:03:39;;;;;;;2.78;1.30;;;25.30;48.90;;;;;;5039500;28;20298;-45
2022/01/16 10:06:16;;;;;;;2.33;1.10;;;25.30;48.90;;;;;;5039237;28;20274;-44
2022/01/16 10:08:47;;;;;;;1.45;1.15;;;25.20;48.80;;;;;;5041035;28;20207;-40
2022/01/16 10:11:27;;;;;;;1.85;1.20;;;25.20;48.80;;;;;;5044857;28;20278;-41
2022/01/16 10:14:01;;;;;;;2.10;1.30;;;25.10;48.80;;;;;;5047764;28;20237;-40
2022/01/16 10:16:35;;;;;;;1.88;1.38;;;25.10;48.90;;;;;;5047596;28;20199;-41
2022/01/16 10:19:06;;;;;;;2.88;1.20;;;25.10;48.90;;;;;;5047203;28;20282;-40
2022/01/16 10:21:40;;;;;;;1.95;1.20;;;25.10;49.00;;;;;;5047229;28;20290;-44
2022/01/16 10:24:25;;;;;;;3.08;1.35;;;25.10;49.00;;;;;;5040914;28;20313;-50
2022/01/16 10:27:14;;;;;;;2.65;1.10;;;25.00;49.50;;;;;;5049194;28;20269;-41
2022/01/16 10:29:59;;;;;;;2.97;1.42;;;25.00;48.90;;;;;;5047586;28;20211;-47
2022/01/16 10:32:33;;;;;;;3.25;0.90;;;25.00;48.90;;;;;;5049190;28;20246;-47
2022/01/16 10:35:14;;;;;;;2.30;1.10;;;24.90;48.90;;;;;;5046637;28;20220;-46
2022/01/16 10:37:46;;;;;;;1.88;1.10;;;24.90;48.90;;;;;;5047388;28;20293;-41
2022/01/16 10:40:20;;;;;;;2.13;0.90;;;24.90;49.00;;;;;;5047569;28;20293;-40
2022/01/16 10:42:53;;;;;;;2.88;1.40;;;24.80;49.00;;;;;;5049006;28;20286;-40
2022/01/16 10:45:28;;;;;;;1.67;1.20;;;24.80;49.00;;;;;;5047156;28;20291;-49
2022/01/16 10:48:01;;;;;;;3.30;1.25;;;24.80;49.00;;;;;;5046390;28;20199;-46
2022/01/16 10:50:37;;;;;;;3.20;1.20;;;24.70;49.00;;;;;;5047088;28;20279;-40
2022/01/16 10:53:09;;;;;;;2.33;1.10;;;24.70;49.10;;;;;;5046706;28;20305;-49
2022/01/16 10:55:44;;;;;;;1.73;0.90;;;24.70;49.10;;;;;;5048838;28;20199;-41
2022/01/16 10:58:16;;;;;;;1.88;0.90;;;24.70;49.10;;;;;;5048961;28;20199;-47
2022/01/16 11:00:51;;;;;;;2.45;1.00;;;24.60;49.70;;;;;;5037007;28;20274;-40
2022/01/16 11:03:26;;;;;;;2.15;1.42;;;24.60;49.10;;;;;;5046952;28;20253;-40
2022/01/16 11:05:57;;;;;;;2.25;1.13;;;24.60;49.10;;;;;;5047500;28;20287;-40
2022/01/16 11:08:29;;;;;;;1.77;1.20;;;24.60;49.10;;;;;;5049208;28;20227;-45
2022/01/16 11:11:01;;;;;;;2.40;1.23;;;24.50;49.10;;;;;;5049684;28;20242;-43
2022/01/16 11:13:33;;;;;;;2.35;1.23;;;24.50;49.10;;;;;;5051197;28;20235;-46
2022/01/16 11:16:05;;;;;;;1.92;1.10;;;24.50;49.20;;;;;;5051219;28;20223;-42
2022/01/16 11:18:40;;;;;;;2.08;1.00;;;24.50;49.10;;;;;;5051101;28;20273;-46
2022/01/16 11:21:19;;;;;;;1.83;1.08;;;24.50;49.20;;;;;;5050606;28;20635;-42
2022/01/16 11:24:10;;;;;;;2.75;1.30;;;24.50;49.20;;;;;;5048109;28;20219;-40
2022/01/16 11:26:41;;;;;;;3.08;1.30;;;24.40;49.20;;;;;;5050859;28;20675;-42
2022/01/16 11:29:14;;;;;;;2.03;1.00;;;24.40;49.20;;;;;;5051995;28;20647;-49
2022/01/16 11:31:45;;;;;;;3.03;1.17;;;24.30;49.20;;;;;;5044666;28;20199;-42
2022/01/16 11:34:17;;;;;;;2.15;1.00;;;24.30;49.20;;;;;;5050661;28;20330;-40
2022/01/16 11:36:48;;;;;;;1.77;1.13;;;24.30;49.30;;;;;;5050920;28;20287;-40
2022/01/16 11:39:23;;;;;;;2.38;1.20;;;24.20;49.30;;;;;;5050970;28;20282;-40
2022/01/16 11:41:57;;;;;;;2.17;0.90;;;24.20;49.30;;;;;;5050800;28;20278;-43
2022/01/16 11:44:29;;;;;;;2.08;0.90;;;24.20;49.30;;;;;;5050451;28;20215;-40
2022/01/16 11:47:03;;;;;;;1.92;1.17;;;24.20;49.30;;;;;;5051949;28;20200;-40
2022/01/16 11:49:40;;;;;;;1.67;1.10;;;24.10;49.30;;;;;;5050743;28;20254;-40
2022/01/16 11:52:12;;;;;;;3.33;1.00;;;24.10;49.30;;;;;;5033916;28;20212;-40
2022/01/16 11:54:44;;;;;;;1.52;0.93;;;24.10;49.30;;;;;;5050106;28;20687;-49
2022/01/16 11:57:23;;;;;;;1.33;0.90;;;24.10;49.30;;;;;;5050858;28;20643;-43
2022/01/16 11:59:56;;;;;;;1.27;0.82;;;24.00;49.30;;;;;;5050591;28;20274;-40
2022/01/16 12:02:31;;;;;;;1.35;0.98;;;24.00;49.30;;;;;;5051746;28;20207;-40
2022/01/16 12:05:08;;;;;;;2.20;1.23;;;24.00;49.30;;;;;;5051768;28;20313;-45
2022/01/16 12:08:10;;;;;;;2.22;1.05;;;24.00;49.30;;;;;;5035445;28;20285;-40
2022/01/16 12:10:57;;;;;;;1.20;0.90;;;24.00;49.40;;;;;;5050454;28;20195;-46
2022/01/16 12:13:58;;;;;;;1.15;0.90;;;23.90;49.30;;;;;;5049117;28;20241;-40
2022/01/16 12:16:49;;;;;;;2.33;0.90;;;23.90;49.40;;;;;;5041591;28;20195;-41
2022/01/16 12:19:50;;;;;;;1.77;0.90;;;23.80;49.40;;;;;;5046528;28;20291;-46
2022/01/16 12:22:46;;;;;;;1.20;0.80;;;23.80;49.50;;;;;;5049830;28;20201;-44
2022/01/16 12:25:22;;;;;;;2.08;1.10;;;23.80;49.50;;;;;;5045808;28;20703;-41
2022/01/16 12:27:55;;;;;;;1.00;0.90;;;23.80;49.50;;;;;;5050132;28;20622;-40
2022/01/16 12:30:31;;;;;;;2.47;0.90;;;23.70;49.50;;;;;;5050753;28;20655;-40
2022/01/16 12:33:08;;;;;;;1.23;1.00;;;23.70;49.50;;;;;;5049280;28;20199;-40
2022/01/16 12:36:13;;;;;;;1.15;0.82;;;23.70;49.50;;;;;;5049492;28;20208;-41
2022/01/16 12:39:06;;;;;;;1.00;0.80;;;23.70;49.50;;;;;;5049501;28;20203;-42
2022/01/16 12:41:45;;;;;;;1.05;0.80;;;23.60;49.40;;;;;;5049512;28;20673;-46
2022/01/16 12:44:17;;;;;;;1.50;0.95;;;23.70;49.50;;;;;;5049716;28;20246;-42
2022/01/16 12:46:51;;;;;;;1.73;0.70;;;23.60;49.50;;;;;;5047121;28;20940;-43
2022/01/16 12:49:22;;;;;;;1.23;0.82;;;23.60;49.50;;;;;;5050816;28;20200;-45
2022/01/16 12:51:54;;;;;;;2.28;1.00;;;23.60;49.50;;;;;;5049584;28;20717;-40
2022/01/16 12:54:28;;;;;;;1.27;0.85;;;23.50;49.50;;;;;;5049547;28;20302;-43
2022/01/16 12:56:59;;;;;;;1.60;0.80;;;23.50;49.60;;;;;;5049415;28;20283;-43
2022/01/16 12:59:31;;;;;;;1.58;0.85;;;23.50;49.60;;;;;;5049545;28;20288;-40
2022/01/16 13:02:02;;;;;;;2.25;1.02;;;23.50;49.70;;;;;;5044527;28;20651;-48
2022/01/16 13:04:34;;;;;;;1.13;0.73;;;23.40;49.60;;;;;;5048469;28;20688;-40
2022/01/16 13:07:11;;;;;;;1.50;0.88;;;23.40;49.60;;;;;;5034882;28;20279;-40
2022/01/16 13:09:43;;;;;;;0.98;0.80;;;23.40;49.60;;;;;;5049118;28;20628;-41
2022/01/16 13:12:14;;;;;;;1.85;1.05;;;23.40;49.70;;;;;;5049145;28;20909;-45
2022/01/16 13:14:46;;;;;;;1.67;0.80;;;23.40;49.70;;;;;;5048740;28;20322;-40
2022/01/16 13:17:17;;;;;;;0.98;0.60;;;23.40;49.70;;;;;;5044569;28;20245;-41
2022/01/16 13:19:52;;;;;;;1.10;0.88;;;23.30;49.70;;;;;;5048099;28;20287;-43
2022/01/16 13:22:37;;;;;;;1.77;0.93;;;23.30;49.70;;;;;;5049717;28;20615;-50
2022/01/16 13:25:12;;;;;;;1.52;1.10;;;23.30;49.70;;;;;;5047320;28;20203;-44
2022/01/16 13:27:44;;;;;;;1.20;0.90;;;23.30;49.70;;;;;;5049874;28;20629;-49
2022/01/16 13:30:24;;;;;;;1.23;0.70;;;23.30;49.70;;;;;;5049174;28;20299;-44
2022/01/16 13:32:55;;;;;;;1.02;0.80;;;23.30;49.70;;;;;;5048527;28;20198;-40
2022/01/16 13:35:27;;;;;;;1.23;0.75;;;23.30;49.70;;;;;;5048060;28;20302;-42
2022/01/16 13:38:06;;;;;;;1.30;0.90;;;23.20;49.70;;;;;;5050060;28;20283;-49
2022/01/16 13:40:40;;;;;;;1.58;0.80;;;23.20;49.70;;;;;;5047337;28;20289;-49
2022/01/16 13:43:14;;;;;;;1.30;0.93;;;23.20;49.70;;;;;;5047844;28;20320;-40
2022/01/16 13:45:45;;;;;;;1.58;0.70;;;23.20;49.80;;;;;;5049429;28;20215;-40
2022/01/16 13:48:18;;;;;;;1.23;0.70;;;23.10;49.80;;;;;;5048907;28;20200;-42
2022/01/16 13:50:50;;;;;;;1.77;0.80;;;23.10;49.80;;;;;;5049015;28;20201;-49
2022/01/16 13:53:23;;;;;;;1.33;0.82;;;23.10;49.80;;;;;;5049264;28;20323;-46
2022/01/16 13:55:58;;;;;;;1.85;0.90;;;23.10;49.80;;;;;;5049811;28;20222;-42
2022/01/16 13:58:30;;;;;;;0.95;0.70;;;23.00;49.80;;;;;;5049890;28;20283;-49